sensor_id;sensor_type;location;lat;lon;timestamp;P1;durP1;ratioP1;P2;durP2;ratioP2
4462;SDS011;2244;50.200;8.220;2023-06-14T00:00:55;14.93;;;7.57;;
4462;SDS011;2244;50.200;8.220;2023-06-14T00:03:23;17.43;;;7.20;;
4462;SDS011;2244;50.200;8.220;2023-06-14T00:05:51;16.47;;;7.50;;
4462;SDS011;2244;50.200;8.220;2023-06-14T00:08:18;17.40;;;7.80;;
4462;SDS011;2244;50.200;8.220;2023-06-14T00:10:47;18.43;;;7.33;;
4462;SDS011;2244;50.200;8.220;2023-06-14T00:13:15;14.07;;;6.30;;
4462;SDS011;2244;50.200;8.220;2023-06-14T00:15:43;14.97;;;7.10;;
4462;SDS011;2244;50.200;8.220;2023-06-14T00:18:11;13.50;;;6.10;;
4462;SDS011;2244;50.200;8.220;2023-06-14T00:20:39;15.70;;;6.60;;
4462;SDS011;2244;50.200;8.220;2023-06-14T00:23:08;16.63;;;7.20;;
4462;SDS011;2244;50.200;8.220;2023-06-14T00:25:36;13.40;;;6.87;;
4462;SDS011;2244;50.200;8.220;2023-06-14T00:28:03;12.23;;;6.10;;
4462;SDS011;2244;50.200;8.220;2023-06-14T00:30:30;15.70;;;6.67;;
4462;SDS011;2244;50.200;8.220;2023-06-14T00:32:58;13.40;;;6.60;;
4462;SDS011;2244;50.200;8.220;2023-06-14T00:35:25;14.77;;;7.20;;
4462;SDS011;2244;50.200;8.220;2023-06-14T00:37:53;15.60;;;6.43;;
4462;SDS011;2244;50.200;8.220;2023-06-14T00:40:21;15.97;;;6.30;;
4462;SDS011;2244;50.200;8.220;2023-06-14T00:42:49;13.10;;;7.00;;
4462;SDS011;2244;50.200;8.220;2023-06-14T00:45:16;14.73;;;6.83;;
4462;SDS011;2244;50.200;8.220;2023-06-14T00:47:44;16.93;;;6.43;;
4462;SDS011;2244;50.200;8.220;2023-06-14T00:50:12;14.30;;;6.03;;
4462;SDS011;2244;50.200;8.220;2023-06-14T00:52:40;13.70;;;6.67;;
4462;SDS011;2244;50.200;8.220;2023-06-14T00:55:07;20.03;;;7.30;;
4462;SDS011;2244;50.200;8.220;2023-06-14T00:57:35;13.83;;;6.70;;
4462;SDS011;2244;50.200;8.220;2023-06-14T01:00:04;15.83;;;6.93;;
4462;SDS011;2244;50.200;8.220;2023-06-14T01:02:33;16.03;;;7.10;;
4462;SDS011;2244;50.200;8.220;2023-06-14T01:05:01;14.37;;;6.33;;
4462;SDS011;2244;50.200;8.220;2023-06-14T01:07:33;13.47;;;5.67;;
4462;SDS011;2244;50.200;8.220;2023-06-14T01:10:20;15.07;;;6.63;;
4462;SDS011;2244;50.200;8.220;2023-06-14T01:12:47;14.37;;;6.67;;
4462;SDS011;2244;50.200;8.220;2023-06-14T01:15:13;16.83;;;7.40;;
4462;SDS011;2244;50.200;8.220;2023-06-14T01:17:42;13.20;;;6.57;;
4462;SDS011;2244;50.200;8.220;2023-06-14T01:20:12;14.90;;;7.00;;
4462;SDS011;2244;50.200;8.220;2023-06-14T01:22:50;13.03;;;6.07;;
4462;SDS011;2244;50.200;8.220;2023-06-14T01:25:23;16.53;;;7.30;;
4462;SDS011;2244;50.200;8.220;2023-06-14T01:27:55;14.33;;;7.07;;
4462;SDS011;2244;50.200;8.220;2023-06-14T01:30:21;12.97;;;6.17;;
4462;SDS011;2244;50.200;8.220;2023-06-14T01:32:49;13.33;;;7.00;;
4462;SDS011;2244;50.200;8.220;2023-06-14T01:35:17;13.00;;;6.00;;
4462;SDS011;2244;50.200;8.220;2023-06-14T01:37:45;20.33;;;7.13;;
4462;SDS011;2244;50.200;8.220;2023-06-14T01:40:14;14.87;;;6.73;;
4462;SDS011;2244;50.200;8.220;2023-06-14T01:42:42;13.37;;;6.70;;
4462;SDS011;2244;50.200;8.220;2023-06-14T01:45:11;13.77;;;6.50;;
4462;SDS011;2244;50.200;8.220;2023-06-14T01:47:38;13.70;;;6.77;;
4462;SDS011;2244;50.200;8.220;2023-06-14T01:50:06;14.17;;;6.57;;
4462;SDS011;2244;50.200;8.220;2023-06-14T01:52:34;14.10;;;6.77;;
4462;SDS011;2244;50.200;8.220;2023-06-14T01:55:01;14.53;;;6.83;;
4462;SDS011;2244;50.200;8.220;2023-06-14T01:57:29;13.63;;;5.97;;
4462;SDS011;2244;50.200;8.220;2023-06-14T01:59:56;15.27;;;7.10;;
4462;SDS011;2244;50.200;8.220;2023-06-14T02:02:24;17.23;;;7.03;;
4462;SDS011;2244;50.200;8.220;2023-06-14T02:04:51;16.53;;;6.60;;
4462;SDS011;2244;50.200;8.220;2023-06-14T02:07:19;15.40;;;6.80;;
4462;SDS011;2244;50.200;8.220;2023-06-14T02:09:46;15.10;;;6.90;;
4462;SDS011;2244;50.200;8.220;2023-06-14T02:12:13;16.50;;;7.17;;
4462;SDS011;2244;50.200;8.220;2023-06-14T02:14:41;16.40;;;6.10;;
4462;SDS011;2244;50.200;8.220;2023-06-14T02:17:08;13.70;;;6.97;;
4462;SDS011;2244;50.200;8.220;2023-06-14T02:19:36;13.67;;;7.00;;
4462;SDS011;2244;50.200;8.220;2023-06-14T02:22:03;14.43;;;6.97;;
4462;SDS011;2244;50.200;8.220;2023-06-14T02:24:31;13.77;;;7.20;;
4462;SDS011;2244;50.200;8.220;2023-06-14T02:26:58;12.90;;;6.10;;
4462;SDS011;2244;50.200;8.220;2023-06-14T02:29:26;16.00;;;6.80;;
4462;SDS011;2244;50.200;8.220;2023-06-14T02:31:54;12.30;;;5.97;;
4462;SDS011;2244;50.200;8.220;2023-06-14T02:34:22;15.07;;;7.23;;
4462;SDS011;2244;50.200;8.220;2023-06-14T02:36:49;15.03;;;6.70;;
4462;SDS011;2244;50.200;8.220;2023-06-14T02:39:18;14.17;;;6.97;;
4462;SDS011;2244;50.200;8.220;2023-06-14T02:41:47;19.17;;;7.20;;
4462;SDS011;2244;50.200;8.220;2023-06-14T02:44:14;18.30;;;7.23;;
4462;SDS011;2244;50.200;8.220;2023-06-14T02:46:44;13.77;;;6.20;;
4462;SDS011;2244;50.200;8.220;2023-06-14T02:49:11;17.10;;;7.27;;
4462;SDS011;2244;50.200;8.220;2023-06-14T02:51:39;17.10;;;7.27;;
4462;SDS011;2244;50.200;8.220;2023-06-14T02:54:06;13.60;;;6.67;;
4462;SDS011;2244;50.200;8.220;2023-06-14T02:56:34;14.70;;;7.20;;
4462;SDS011;2244;50.200;8.220;2023-06-14T02:59:02;16.70;;;6.90;;
4462;SDS011;2244;50.200;8.220;2023-06-14T03:01:30;13.97;;;6.77;;
4462;SDS011;2244;50.200;8.220;2023-06-14T03:04:05;14.87;;;7.13;;
4462;SDS011;2244;50.200;8.220;2023-06-14T03:06:32;17.70;;;6.77;;
4462;SDS011;2244;50.200;8.220;2023-06-14T03:09:00;14.70;;;6.33;;
4462;SDS011;2244;50.200;8.220;2023-06-14T03:11:29;16.30;;;6.57;;
4462;SDS011;2244;50.200;8.220;2023-06-14T03:13:56;16.63;;;7.50;;
4462;SDS011;2244;50.200;8.220;2023-06-14T03:16:24;17.30;;;7.13;;
4462;SDS011;2244;50.200;8.220;2023-06-14T03:18:51;15.03;;;6.77;;
4462;SDS011;2244;50.200;8.220;2023-06-14T03:21:19;14.80;;;7.20;;
4462;SDS011;2244;50.200;8.220;2023-06-14T03:23:47;16.73;;;7.40;;
4462;SDS011;2244;50.200;8.220;2023-06-14T03:26:15;18.10;;;7.60;;
4462;SDS011;2244;50.200;8.220;2023-06-14T03:28:45;14.17;;;6.50;;
4462;SDS011;2244;50.200;8.220;2023-06-14T03:31:13;17.47;;;7.30;;
4462;SDS011;2244;50.200;8.220;2023-06-14T03:33:40;18.10;;;7.50;;
4462;SDS011;2244;50.200;8.220;2023-06-14T03:36:07;14.67;;;6.93;;
4462;SDS011;2244;50.200;8.220;2023-06-14T03:38:35;14.47;;;7.47;;
4462;SDS011;2244;50.200;8.220;2023-06-14T03:41:02;13.83;;;6.83;;
4462;SDS011;2244;50.200;8.220;2023-06-14T03:43:30;12.67;;;6.60;;
4462;SDS011;2244;50.200;8.220;2023-06-14T03:45:57;18.83;;;6.33;;
4462;SDS011;2244;50.200;8.220;2023-06-14T03:48:24;16.47;;;7.27;;
4462;SDS011;2244;50.200;8.220;2023-06-14T03:50:52;12.43;;;6.20;;
4462;SDS011;2244;50.200;8.220;2023-06-14T03:53:23;15.13;;;6.33;;
4462;SDS011;2244;50.200;8.220;2023-06-14T03:55:50;14.13;;;6.97;;
4462;SDS011;2244;50.200;8.220;2023-06-14T03:58:21;15.10;;;6.93;;
4462;SDS011;2244;50.200;8.220;2023-06-14T04:00:48;12.90;;;6.30;;
4462;SDS011;2244;50.200;8.220;2023-06-14T04:03:16;13.57;;;6.40;;
4462;SDS011;2244;50.200;8.220;2023-06-14T04:05:46;16.37;;;6.50;;
4462;SDS011;2244;50.200;8.220;2023-06-14T04:08:15;14.93;;;6.17;;
4462;SDS011;2244;50.200;8.220;2023-06-14T04:10:44;13.57;;;6.40;;
4462;SDS011;2244;50.200;8.220;2023-06-14T04:13:12;16.40;;;6.43;;
4462;SDS011;2244;50.200;8.220;2023-06-14T04:15:40;14.00;;;6.03;;
4462;SDS011;2244;50.200;8.220;2023-06-14T04:18:12;14.47;;;5.97;;
4462;SDS011;2244;50.200;8.220;2023-06-14T04:20:39;15.60;;;6.90;;
4462;SDS011;2244;50.200;8.220;2023-06-14T04:23:14;13.47;;;6.20;;
4462;SDS011;2244;50.200;8.220;2023-06-14T04:25:44;12.67;;;5.70;;
4462;SDS011;2244;50.200;8.220;2023-06-14T04:28:12;13.97;;;5.70;;
4462;SDS011;2244;50.200;8.220;2023-06-14T04:30:41;11.90;;;5.83;;
4462;SDS011;2244;50.200;8.220;2023-06-14T04:33:09;13.50;;;6.47;;
4462;SDS011;2244;50.200;8.220;2023-06-14T04:35:37;14.60;;;5.47;;
4462;SDS011;2244;50.200;8.220;2023-06-14T04:38:05;12.60;;;5.60;;
4462;SDS011;2244;50.200;8.220;2023-06-14T04:40:34;11.50;;;5.73;;
4462;SDS011;2244;50.200;8.220;2023-06-14T04:43:03;10.63;;;5.03;;
4462;SDS011;2244;50.200;8.220;2023-06-14T04:45:31;11.53;;;5.23;;
4462;SDS011;2244;50.200;8.220;2023-06-14T04:47:59;12.97;;;5.30;;
4462;SDS011;2244;50.200;8.220;2023-06-14T04:50:26;13.50;;;5.20;;
4462;SDS011;2244;50.200;8.220;2023-06-14T04:52:55;16.73;;;5.30;;
4462;SDS011;2244;50.200;8.220;2023-06-14T04:55:23;13.40;;;5.70;;
4462;SDS011;2244;50.200;8.220;2023-06-14T04:57:51;16.33;;;5.20;;
4462;SDS011;2244;50.200;8.220;2023-06-14T05:00:22;13.47;;;5.00;;
4462;SDS011;2244;50.200;8.220;2023-06-14T05:02:50;17.33;;;5.17;;
4462;SDS011;2244;50.200;8.220;2023-06-14T05:05:17;11.67;;;5.37;;
4462;SDS011;2244;50.200;8.220;2023-06-14T05:07:46;14.33;;;5.13;;
4462;SDS011;2244;50.200;8.220;2023-06-14T05:10:13;13.57;;;5.33;;
4462;SDS011;2244;50.200;8.220;2023-06-14T05:12:41;12.63;;;5.17;;
4462;SDS011;2244;50.200;8.220;2023-06-14T05:15:10;14.00;;;5.80;;
4462;SDS011;2244;50.200;8.220;2023-06-14T05:17:37;16.27;;;6.10;;
4462;SDS011;2244;50.200;8.220;2023-06-14T05:20:07;18.53;;;5.43;;
4462;SDS011;2244;50.200;8.220;2023-06-14T05:22:36;15.00;;;5.83;;
4462;SDS011;2244;50.200;8.220;2023-06-14T05:25:03;18.40;;;5.80;;
4462;SDS011;2244;50.200;8.220;2023-06-14T05:27:31;11.17;;;5.33;;
4462;SDS011;2244;50.200;8.220;2023-06-14T05:30:00;11.90;;;5.17;;
4462;SDS011;2244;50.200;8.220;2023-06-14T05:32:28;16.10;;;6.47;;
4462;SDS011;2244;50.200;8.220;2023-06-14T05:34:56;11.90;;;5.13;;
4462;SDS011;2244;50.200;8.220;2023-06-14T05:37:23;13.50;;;5.30;;
4462;SDS011;2244;50.200;8.220;2023-06-14T05:39:50;14.00;;;5.10;;
4462;SDS011;2244;50.200;8.220;2023-06-14T05:42:18;12.33;;;4.60;;
4462;SDS011;2244;50.200;8.220;2023-06-14T05:44:45;13.03;;;5.50;;
4462;SDS011;2244;50.200;8.220;2023-06-14T05:47:13;16.70;;;5.23;;
4462;SDS011;2244;50.200;8.220;2023-06-14T05:49:40;13.47;;;5.20;;
4462;SDS011;2244;50.200;8.220;2023-06-14T05:52:08;13.53;;;4.67;;
4462;SDS011;2244;50.200;8.220;2023-06-14T05:54:35;11.17;;;4.50;;
4462;SDS011;2244;50.200;8.220;2023-06-14T05:57:03;17.90;;;5.43;;
4462;SDS011;2244;50.200;8.220;2023-06-14T05:59:32;12.57;;;4.93;;
4462;SDS011;2244;50.200;8.220;2023-06-14T06:02:00;12.07;;;4.63;;
4462;SDS011;2244;50.200;8.220;2023-06-14T06:04:27;12.63;;;4.60;;
4462;SDS011;2244;50.200;8.220;2023-06-14T06:06:55;14.53;;;4.67;;
4462;SDS011;2244;50.200;8.220;2023-06-14T06:09:22;13.13;;;4.90;;
4462;SDS011;2244;50.200;8.220;2023-06-14T06:11:49;11.97;;;4.60;;
4462;SDS011;2244;50.200;8.220;2023-06-14T06:14:18;16.90;;;4.60;;
4462;SDS011;2244;50.200;8.220;2023-06-14T06:16:46;11.60;;;4.73;;
4462;SDS011;2244;50.200;8.220;2023-06-14T06:19:14;12.97;;;4.60;;
4462;SDS011;2244;50.200;8.220;2023-06-14T06:21:41;18.00;;;4.60;;
4462;SDS011;2244;50.200;8.220;2023-06-14T06:24:09;13.93;;;4.93;;
4462;SDS011;2244;50.200;8.220;2023-06-14T06:26:36;11.57;;;4.60;;
4462;SDS011;2244;50.200;8.220;2023-06-14T06:29:04;13.27;;;4.03;;
4462;SDS011;2244;50.200;8.220;2023-06-14T06:31:31;12.93;;;4.40;;
4462;SDS011;2244;50.200;8.220;2023-06-14T06:33:59;21.33;;;4.70;;
4462;SDS011;2244;50.200;8.220;2023-06-14T06:36:26;13.80;;;4.33;;
4462;SDS011;2244;50.200;8.220;2023-06-14T06:38:53;10.97;;;3.90;;
4462;SDS011;2244;50.200;8.220;2023-06-14T06:41:21;12.83;;;3.87;;
4462;SDS011;2244;50.200;8.220;2023-06-14T06:43:49;14.10;;;3.93;;
4462;SDS011;2244;50.200;8.220;2023-06-14T06:46:16;11.87;;;3.80;;
4462;SDS011;2244;50.200;8.220;2023-06-14T06:48:45;10.90;;;3.53;;
4462;SDS011;2244;50.200;8.220;2023-06-14T06:51:12;11.50;;;3.50;;
4462;SDS011;2244;50.200;8.220;2023-06-14T06:53:41;13.50;;;3.47;;
4462;SDS011;2244;50.200;8.220;2023-06-14T06:56:12;11.77;;;3.63;;
4462;SDS011;2244;50.200;8.220;2023-06-14T06:58:39;11.47;;;3.00;;
4462;SDS011;2244;50.200;8.220;2023-06-14T07:01:06;11.53;;;3.70;;
4462;SDS011;2244;50.200;8.220;2023-06-14T07:03:35;10.93;;;3.40;;
4462;SDS011;2244;50.200;8.220;2023-06-14T07:06:03;11.30;;;2.90;;
4462;SDS011;2244;50.200;8.220;2023-06-14T07:08:31;15.03;;;3.20;;
4462;SDS011;2244;50.200;8.220;2023-06-14T07:10:58;20.23;;;3.63;;
4462;SDS011;2244;50.200;8.220;2023-06-14T07:13:25;11.67;;;3.30;;
4462;SDS011;2244;50.200;8.220;2023-06-14T07:15:57;11.03;;;2.93;;
4462;SDS011;2244;50.200;8.220;2023-06-14T07:18:25;17.97;;;3.10;;
4462;SDS011;2244;50.200;8.220;2023-06-14T07:20:53;10.60;;;3.33;;
4462;SDS011;2244;50.200;8.220;2023-06-14T07:23:21;9.70;;;2.73;;
4462;SDS011;2244;50.200;8.220;2023-06-14T07:25:48;10.20;;;2.60;;
4462;SDS011;2244;50.200;8.220;2023-06-14T07:28:16;13.23;;;2.67;;
4462;SDS011;2244;50.200;8.220;2023-06-14T07:30:45;11.27;;;2.90;;
4462;SDS011;2244;50.200;8.220;2023-06-14T07:33:12;13.33;;;2.93;;
4462;SDS011;2244;50.200;8.220;2023-06-14T07:35:40;17.73;;;3.13;;
4462;SDS011;2244;50.200;8.220;2023-06-14T07:38:08;12.77;;;2.97;;
4462;SDS011;2244;50.200;8.220;2023-06-14T07:40:36;10.00;;;2.60;;
4462;SDS011;2244;50.200;8.220;2023-06-14T07:43:03;8.30;;;2.00;;
4462;SDS011;2244;50.200;8.220;2023-06-14T07:45:30;8.93;;;2.43;;
4462;SDS011;2244;50.200;8.220;2023-06-14T07:47:58;13.30;;;2.67;;
4462;SDS011;2244;50.200;8.220;2023-06-14T07:50:26;12.43;;;2.67;;
4462;SDS011;2244;50.200;8.220;2023-06-14T07:52:53;11.03;;;2.63;;
4462;SDS011;2244;50.200;8.220;2023-06-14T07:55:21;15.17;;;3.20;;
4462;SDS011;2244;50.200;8.220;2023-06-14T07:57:48;9.97;;;2.67;;
4462;SDS011;2244;50.200;8.220;2023-06-14T08:00:16;16.43;;;2.67;;
4462;SDS011;2244;50.200;8.220;2023-06-14T08:02:44;10.93;;;3.40;;
4462;SDS011;2244;50.200;8.220;2023-06-14T08:05:12;10.50;;;2.73;;
4462;SDS011;2244;50.200;8.220;2023-06-14T08:07:40;9.73;;;2.67;;
4462;SDS011;2244;50.200;8.220;2023-06-14T08:10:08;13.40;;;2.77;;
4462;SDS011;2244;50.200;8.220;2023-06-14T08:12:35;12.37;;;3.20;;
4462;SDS011;2244;50.200;8.220;2023-06-14T08:15:05;20.30;;;3.60;;
4462;SDS011;2244;50.200;8.220;2023-06-14T08:17:34;9.83;;;3.17;;
4462;SDS011;2244;50.200;8.220;2023-06-14T08:20:01;11.30;;;3.20;;
4462;SDS011;2244;50.200;8.220;2023-06-14T08:22:30;9.63;;;3.20;;
4462;SDS011;2244;50.200;8.220;2023-06-14T08:25:00;15.23;;;2.90;;
4462;SDS011;2244;50.200;8.220;2023-06-14T08:27:27;12.33;;;3.50;;
4462;SDS011;2244;50.200;8.220;2023-06-14T08:29:56;9.50;;;2.90;;
4462;SDS011;2244;50.200;8.220;2023-06-14T08:32:24;9.20;;;2.50;;
4462;SDS011;2244;50.200;8.220;2023-06-14T08:34:51;10.17;;;2.47;;
4462;SDS011;2244;50.200;8.220;2023-06-14T08:37:20;12.83;;;2.77;;
4462;SDS011;2244;50.200;8.220;2023-06-14T08:39:48;12.03;;;3.23;;
4462;SDS011;2244;50.200;8.220;2023-06-14T08:42:16;10.10;;;2.77;;
4462;SDS011;2244;50.200;8.220;2023-06-14T08:44:46;9.37;;;2.37;;
4462;SDS011;2244;50.200;8.220;2023-06-14T08:47:14;13.73;;;2.40;;
4462;SDS011;2244;50.200;8.220;2023-06-14T08:49:45;12.87;;;2.43;;
4462;SDS011;2244;50.200;8.220;2023-06-14T08:52:13;10.70;;;2.60;;
4462;SDS011;2244;50.200;8.220;2023-06-14T08:54:44;10.17;;;3.00;;
4462;SDS011;2244;50.200;8.220;2023-06-14T08:57:11;11.17;;;2.50;;
4462;SDS011;2244;50.200;8.220;2023-06-14T08:59:44;8.53;;;2.40;;
4462;SDS011;2244;50.200;8.220;2023-06-14T09:02:10;11.70;;;1.73;;
4462;SDS011;2244;50.200;8.220;2023-06-14T09:04:39;10.13;;;2.20;;
4462;SDS011;2244;50.200;8.220;2023-06-14T09:07:09;9.30;;;2.13;;
4462;SDS011;2244;50.200;8.220;2023-06-14T09:09:39;11.27;;;2.33;;
4462;SDS011;2244;50.200;8.220;2023-06-14T09:12:12;11.50;;;1.80;;
4462;SDS011;2244;50.200;8.220;2023-06-14T09:14:40;8.87;;;1.87;;
4462;SDS011;2244;50.200;8.220;2023-06-14T09:17:08;38.63;;;3.90;;
4462;SDS011;2244;50.200;8.220;2023-06-14T09:19:37;9.07;;;2.27;;
4462;SDS011;2244;50.200;8.220;2023-06-14T09:22:05;10.50;;;2.33;;
4462;SDS011;2244;50.200;8.220;2023-06-14T09:24:32;9.40;;;2.77;;
4462;SDS011;2244;50.200;8.220;2023-06-14T09:27:00;9.60;;;2.37;;
4462;SDS011;2244;50.200;8.220;2023-06-14T09:29:27;9.10;;;2.53;;
4462;SDS011;2244;50.200;8.220;2023-06-14T09:31:55;14.27;;;3.07;;
4462;SDS011;2244;50.200;8.220;2023-06-14T09:34:22;9.90;;;2.50;;
4462;SDS011;2244;50.200;8.220;2023-06-14T09:36:51;10.43;;;3.30;;
4462;SDS011;2244;50.200;8.220;2023-06-14T09:39:18;9.03;;;2.50;;
4462;SDS011;2244;50.200;8.220;2023-06-14T09:41:45;12.63;;;2.53;;
4462;SDS011;2244;50.200;8.220;2023-06-14T09:44:13;10.13;;;2.73;;
4462;SDS011;2244;50.200;8.220;2023-06-14T09:46:42;98.00;;;4.03;;
4462;SDS011;2244;50.200;8.220;2023-06-14T09:49:10;9.27;;;2.50;;
4462;SDS011;2244;50.200;8.220;2023-06-14T09:51:46;9.20;;;2.40;;
4462;SDS011;2244;50.200;8.220;2023-06-14T09:54:12;12.13;;;2.50;;
4462;SDS011;2244;50.200;8.220;2023-06-14T09:56:44;9.07;;;2.30;;
4462;SDS011;2244;50.200;8.220;2023-06-14T09:59:12;8.60;;;2.50;;
4462;SDS011;2244;50.200;8.220;2023-06-14T10:01:41;9.03;;;2.60;;
4462;SDS011;2244;50.200;8.220;2023-06-14T10:04:09;9.43;;;2.20;;
4462;SDS011;2244;50.200;8.220;2023-06-14T10:06:43;11.47;;;2.40;;
4462;SDS011;2244;50.200;8.220;2023-06-14T10:09:07;11.07;;;2.40;;
4462;SDS011;2244;50.200;8.220;2023-06-14T10:11:35;12.00;;;2.83;;
4462;SDS011;2244;50.200;8.220;2023-06-14T10:14:04;8.93;;;2.33;;
4462;SDS011;2244;50.200;8.220;2023-06-14T10:16:34;12.50;;;2.67;;
4462;SDS011;2244;50.200;8.220;2023-06-14T10:19:11;12.63;;;2.80;;
4462;SDS011;2244;50.200;8.220;2023-06-14T10:21:37;15.30;;;2.70;;
4462;SDS011;2244;50.200;8.220;2023-06-14T10:24:07;9.00;;;2.50;;
4462;SDS011;2244;50.200;8.220;2023-06-14T10:26:35;12.17;;;2.40;;
4462;SDS011;2244;50.200;8.220;2023-06-14T10:29:09;12.87;;;2.67;;
4462;SDS011;2244;50.200;8.220;2023-06-14T10:31:46;11.43;;;2.10;;
4462;SDS011;2244;50.200;8.220;2023-06-14T10:34:24;11.33;;;2.60;;
4462;SDS011;2244;50.200;8.220;2023-06-14T10:37:34;9.10;;;2.47;;
4462;SDS011;2244;50.200;8.220;2023-06-14T10:39:23;8.30;;;2.37;;
4462;SDS011;2244;50.200;8.220;2023-06-14T10:41:57;9.00;;;2.00;;
4462;SDS011;2244;50.200;8.220;2023-06-14T10:46:49;9.70;;;2.67;;
4462;SDS011;2244;50.200;8.220;2023-06-14T10:49:19;11.93;;;2.80;;
4462;SDS011;2244;50.200;8.220;2023-06-14T10:51:50;46.17;;;3.13;;
4462;SDS011;2244;50.200;8.220;2023-06-14T10:54:21;11.50;;;2.40;;
4462;SDS011;2244;50.200;8.220;2023-06-14T10:56:50;11.60;;;2.40;;
4462;SDS011;2244;50.200;8.220;2023-06-14T10:59:18;10.03;;;2.80;;
4462;SDS011;2244;50.200;8.220;2023-06-14T11:04:18;10.10;;;2.60;;
4462;SDS011;2244;50.200;8.220;2023-06-14T11:06:48;10.37;;;2.60;;
4462;SDS011;2244;50.200;8.220;2023-06-14T11:09:34;9.80;;;2.33;;
4462;SDS011;2244;50.200;8.220;2023-06-14T11:11:58;13.87;;;2.50;;
4462;SDS011;2244;50.200;8.220;2023-06-14T11:14:29;8.77;;;2.40;;
4462;SDS011;2244;50.200;8.220;2023-06-14T11:16:57;10.00;;;2.83;;
4462;SDS011;2244;50.200;8.220;2023-06-14T11:19:25;9.47;;;2.53;;
4462;SDS011;2244;50.200;8.220;2023-06-14T11:21:54;9.83;;;2.63;;
4462;SDS011;2244;50.200;8.220;2023-06-14T11:24:21;8.73;;;2.53;;
4462;SDS011;2244;50.200;8.220;2023-06-14T11:26:49;9.00;;;2.33;;
4462;SDS011;2244;50.200;8.220;2023-06-14T11:29:16;9.80;;;2.30;;
4462;SDS011;2244;50.200;8.220;2023-06-14T11:31:46;10.77;;;2.80;;
4462;SDS011;2244;50.200;8.220;2023-06-14T11:34:13;8.40;;;2.23;;
4462;SDS011;2244;50.200;8.220;2023-06-14T11:36:41;10.40;;;2.50;;
4462;SDS011;2244;50.200;8.220;2023-06-14T11:39:10;11.13;;;2.70;;
4462;SDS011;2244;50.200;8.220;2023-06-14T11:41:44;9.10;;;2.67;;
4462;SDS011;2244;50.200;8.220;2023-06-14T11:44:12;8.00;;;2.20;;
4462;SDS011;2244;50.200;8.220;2023-06-14T11:46:39;9.30;;;2.33;;
4462;SDS011;2244;50.200;8.220;2023-06-14T11:49:07;9.60;;;2.60;;
4462;SDS011;2244;50.200;8.220;2023-06-14T11:51:36;9.00;;;2.70;;
4462;SDS011;2244;50.200;8.220;2023-06-14T11:54:04;12.33;;;2.37;;
4462;SDS011;2244;50.200;8.220;2023-06-14T11:56:32;9.67;;;2.93;;
4462;SDS011;2244;50.200;8.220;2023-06-14T11:59:03;9.30;;;2.30;;
4462;SDS011;2244;50.200;8.220;2023-06-14T12:01:29;10.70;;;2.23;;
4462;SDS011;2244;50.200;8.220;2023-06-14T12:03:58;10.30;;;2.40;;
4462;SDS011;2244;50.200;8.220;2023-06-14T12:06:27;8.80;;;2.80;;
4462;SDS011;2244;50.200;8.220;2023-06-14T12:08:56;9.57;;;2.40;;
4462;SDS011;2244;50.200;8.220;2023-06-14T12:11:28;8.90;;;2.60;;
4462;SDS011;2244;50.200;8.220;2023-06-14T12:13:53;10.50;;;3.27;;
4462;SDS011;2244;50.200;8.220;2023-06-14T12:16:21;13.60;;;5.10;;
4462;SDS011;2244;50.200;8.220;2023-06-14T12:18:49;18.70;;;10.40;;
4462;SDS011;2244;50.200;8.220;2023-06-14T12:21:16;10.27;;;3.47;;
4462;SDS011;2244;50.200;8.220;2023-06-14T12:23:46;13.87;;;5.90;;
4462;SDS011;2244;50.200;8.220;2023-06-14T12:26:15;15.40;;;4.87;;
4462;SDS011;2244;50.200;8.220;2023-06-14T12:28:48;11.10;;;3.40;;
4462;SDS011;2244;50.200;8.220;2023-06-14T12:31:12;12.87;;;4.57;;
4462;SDS011;2244;50.200;8.220;2023-06-14T12:33:40;11.33;;;3.60;;
4462;SDS011;2244;50.200;8.220;2023-06-14T12:36:08;14.47;;;5.93;;
4462;SDS011;2244;50.200;8.220;2023-06-14T12:38:36;12.53;;;4.40;;
4462;SDS011;2244;50.200;8.220;2023-06-14T12:41:03;19.60;;;11.17;;
4462;SDS011;2244;50.200;8.220;2023-06-14T12:43:31;9.10;;;2.87;;
4462;SDS011;2244;50.200;8.220;2023-06-14T12:45:59;9.43;;;2.77;;
4462;SDS011;2244;50.200;8.220;2023-06-14T12:48:27;14.00;;;5.40;;
4462;SDS011;2244;50.200;8.220;2023-06-14T12:50:56;10.20;;;3.00;;
4462;SDS011;2244;50.200;8.220;2023-06-14T12:53:23;14.53;;;4.70;;
4462;SDS011;2244;50.200;8.220;2023-06-14T12:55:51;8.97;;;2.70;;
4462;SDS011;2244;50.200;8.220;2023-06-14T12:58:18;12.53;;;5.57;;
4462;SDS011;2244;50.200;8.220;2023-06-14T13:00:46;11.53;;;4.30;;
4462;SDS011;2244;50.200;8.220;2023-06-14T13:03:14;18.47;;;7.63;;
4462;SDS011;2244;50.200;8.220;2023-06-14T13:05:42;9.00;;;2.67;;
4462;SDS011;2244;50.200;8.220;2023-06-14T13:08:10;9.03;;;2.33;;
4462;SDS011;2244;50.200;8.220;2023-06-14T13:10:37;10.47;;;2.70;;
4462;SDS011;2244;50.200;8.220;2023-06-14T13:13:05;14.03;;;5.50;;
4462;SDS011;2244;50.200;8.220;2023-06-14T13:15:34;9.20;;;2.50;;
4462;SDS011;2244;50.200;8.220;2023-06-14T13:18:01;8.93;;;2.50;;
4462;SDS011;2244;50.200;8.220;2023-06-14T13:20:29;9.03;;;2.10;;
4462;SDS011;2244;50.200;8.220;2023-06-14T13:22:57;9.13;;;2.33;;
4462;SDS011;2244;50.200;8.220;2023-06-14T13:25:25;8.40;;;2.27;;
4462;SDS011;2244;50.200;8.220;2023-06-14T13:27:52;8.67;;;2.20;;
4462;SDS011;2244;50.200;8.220;2023-06-14T13:30:19;9.20;;;2.30;;
4462;SDS011;2244;50.200;8.220;2023-06-14T13:32:47;10.27;;;2.27;;
4462;SDS011;2244;50.200;8.220;2023-06-14T13:35:16;8.50;;;2.40;;
4462;SDS011;2244;50.200;8.220;2023-06-14T13:37:44;9.67;;;2.43;;
4462;SDS011;2244;50.200;8.220;2023-06-14T13:40:11;10.30;;;2.40;;
4462;SDS011;2244;50.200;8.220;2023-06-14T13:42:39;9.20;;;2.70;;
4462;SDS011;2244;50.200;8.220;2023-06-14T13:45:07;8.20;;;2.00;;
4462;SDS011;2244;50.200;8.220;2023-06-14T13:47:35;10.87;;;2.57;;
4462;SDS011;2244;50.200;8.220;2023-06-14T13:50:03;9.00;;;2.57;;
4462;SDS011;2244;50.200;8.220;2023-06-14T13:52:30;10.00;;;2.30;;
4462;SDS011;2244;50.200;8.220;2023-06-14T13:54:58;10.30;;;2.30;;
4462;SDS011;2244;50.200;8.220;2023-06-14T13:57:26;13.83;;;2.70;;
4462;SDS011;2244;50.200;8.220;2023-06-14T13:59:54;11.20;;;2.70;;
4462;SDS011;2244;50.200;8.220;2023-06-14T14:02:23;10.43;;;2.47;;
4462;SDS011;2244;50.200;8.220;2023-06-14T14:04:51;11.30;;;2.57;;
4462;SDS011;2244;50.200;8.220;2023-06-14T14:07:20;9.07;;;2.60;;
4462;SDS011;2244;50.200;8.220;2023-06-14T14:09:48;15.50;;;2.77;;
4462;SDS011;2244;50.200;8.220;2023-06-14T14:12:15;12.47;;;3.20;;
4462;SDS011;2244;50.200;8.220;2023-06-14T14:14:43;9.90;;;2.60;;
4462;SDS011;2244;50.200;8.220;2023-06-14T14:17:11;15.23;;;2.97;;
4462;SDS011;2244;50.200;8.220;2023-06-14T14:19:39;9.93;;;2.63;;
4462;SDS011;2244;50.200;8.220;2023-06-14T14:22:07;9.60;;;2.53;;
4462;SDS011;2244;50.200;8.220;2023-06-14T14:24:35;11.23;;;2.70;;
4462;SDS011;2244;50.200;8.220;2023-06-14T14:27:02;9.93;;;2.83;;
4462;SDS011;2244;50.200;8.220;2023-06-14T14:29:30;10.03;;;2.50;;
4462;SDS011;2244;50.200;8.220;2023-06-14T14:31:57;9.87;;;2.90;;
4462;SDS011;2244;50.200;8.220;2023-06-14T14:34:25;9.50;;;2.77;;
4462;SDS011;2244;50.200;8.220;2023-06-14T14:36:53;9.30;;;2.23;;
4462;SDS011;2244;50.200;8.220;2023-06-14T14:39:20;9.47;;;2.97;;
4462;SDS011;2244;50.200;8.220;2023-06-14T14:41:48;8.63;;;2.60;;
4462;SDS011;2244;50.200;8.220;2023-06-14T14:44:16;10.70;;;3.03;;
4462;SDS011;2244;50.200;8.220;2023-06-14T14:46:45;9.43;;;3.00;;
4462;SDS011;2244;50.200;8.220;2023-06-14T14:49:12;10.00;;;2.70;;
4462;SDS011;2244;50.200;8.220;2023-06-14T14:51:40;11.90;;;3.00;;
4462;SDS011;2244;50.200;8.220;2023-06-14T14:54:09;12.17;;;2.67;;
4462;SDS011;2244;50.200;8.220;2023-06-14T14:56:36;9.80;;;2.33;;
4462;SDS011;2244;50.200;8.220;2023-06-14T14:59:04;12.40;;;2.90;;
4462;SDS011;2244;50.200;8.220;2023-06-14T15:01:32;9.47;;;2.70;;
4462;SDS011;2244;50.200;8.220;2023-06-14T15:03:59;10.30;;;2.73;;
4462;SDS011;2244;50.200;8.220;2023-06-14T15:06:27;9.60;;;3.03;;
4462;SDS011;2244;50.200;8.220;2023-06-14T15:08:55;8.70;;;2.70;;
4462;SDS011;2244;50.200;8.220;2023-06-14T15:11:23;8.70;;;2.60;;
4462;SDS011;2244;50.200;8.220;2023-06-14T15:13:50;9.50;;;2.77;;
4462;SDS011;2244;50.200;8.220;2023-06-14T15:16:17;9.00;;;2.40;;